Ethridge, Tennessee
Current Conditions -  °F | °C
As of 10:35 PM on Wednesday 22 Oct 2014 (Local Time) from KMRC Reporting Station
Clear Clear  
Wind Chill:   Ceiling: Unl
Heat Index:   Visibility: 7mi
Dew Point:   Wind: 0mph
Humidity: 100%   Direction: NA
Pressure: 30.19"   Gusts: NA
Location:  35.32°N, 87.3°W
Report Text: KMRC 230335Z AUTO 00000KT 7SM CLR 06/06 A3019 RMK
Loading
Personal Weather Stations






























Interactive Weather Map
Tropical Storm Tracking
New forecast layout! Learn more

10-Day Weather Forecast

Advertisements
Track Severe Weather on mobile